Sackville, Canada
Current Conditions -  °F | °C
As of 4:00 PM on Sunday 21 Dec 2014 (Local Time) from CYQM Reporting Station
Snow Showers Snow Showers  
Wind Chill: 23°   Ceiling: 1600
Heat Index: 28°   Visibility: 12mi
Dew Point: 21°   Wind: 5mph
Humidity: 74%   Direction: 100°E
Pressure: 30.37"   Gusts: NA
Location:  45.9°N, 64.37°W
Report Text: CYQM 212000Z 10004KT 12SM -SHSN OVC016 M02/M06 A3037 RMK SC8 SLP288
Loading
Personal Weather Stations






























Interactive Weather Map New forecast layout! Learn more

10-Day Weather Forecast

Advertisements
Track Severe Weather on mobile